Airfield :
LOGIN :

Register | Disclaimer

   EN    FR    IT 

 










Legend :    VFR   Marginal VFR   IFR   Intensive IFR   Very Intensive IFR
Visi :
Ceiling :
>= 8 km
>= 3000ft
5 to 8 km
1000 to 3000 ft
1500m to 5 km
500 to 1000 ft
800 to 1500m
200 to 500 ft
< 800m
< 200 ft
Symbols :   Thunderstorms  Fog  Heavy snow  Heavy precipitations  Wind > 20 kt
SIGMETs :     Misc.  Thunderstorms  Icing  Turbulence  Mountain Waves  Volcanic Ashes






- Airport Elevation : 1197 ft
- IATA code : SPM


ETAD - Spangdahlem Ab

CURRENT METAR :
  • 080156Z AUTO 04005KT 9999 CLR M03/M06 A3014 RMK AO2 SLP214 T10291062 $

EXPIRED METARs :
  • 080056Z AUTO 03004KT 9999 CLR M02/M06 A3015 RMK AO2 SLP215 T10231061 $
  • 072356Z AUTO 04007KT 9999 CLR M02/M06 A3015 RMK AO2 SLP215 T10161060 10028 21016 50002 $

TAF TAF ETAD
Valid from the 07 at 19:00 until the 09 at 01:00 UTC


071900Z 0719/0901 02009KT 9999 SKC QNH3013INS
BECMG 0803/0804 04006KT 9999 SCT040 QNH3018INS
BECMG 0809/0810 04008KT 9999 BKN030 620309 QNH3010INS
BECMG 0817/0818 05006KT 9999 SKC QNH3008INS TX06/0814Z TNM05/0804Z LAST NO AMDS AFT 0719 NEXT 0805



MET'MAP, your aeronautical weather chart ! - Copyright ORBIFLY December 2007 - Disclaimer

ORBIFLY MET'MAP TEAM :

Programming & Development : Alexandra Zaïnal
Concept & original design : Baudouin d'Aumeries
Assistance for programming : Marc-Olivier Méhu
Technical & hardware support : Manuel Goepfert

Contact : metmap@orbifly.com




SOURCES & CREDITS :

   NOAA